Time;durP1;ratioP1;P1;durP2;ratioP2;P2;SDS_P1;SDS_P2;PMS_P1;PMS_P2;Temp;Humidity;BMP_temperature;BMP_pressure;BME280_temperature;BME280_humidity;BME280_pressure;Samples;Min_cycle;Max_cycle;Signal;HPM_P1;HPM_P2
2023/10/20 00:09:49;;;;;;;6.40;4.00;;;;;;;6.80;99.92;98931.88;668219;1263;138691;-80
2023/10/20 00:24:53;;;;;;;7.60;3.40;;;;;;;6.61;100.00;98925.29;670950;1269;139017;-80
2023/10/20 00:39:57;;;;;;;6.60;3.80;;;;;;;6.45;100.00;98922.95;669844;1263;139504;-81
2023/10/20 00:55:00;;;;;;;5.10;3.50;;;;;;;6.27;100.00;98914.91;671499;1264;138841;-79
2023/10/20 01:10:07;;;;;;;6.10;3.40;;;;;;;6.22;100.00;98895.60;668955;1257;139162;-81
2023/10/20 01:25:11;;;;;;;4.80;3.00;;;;;;;6.17;100.00;98872.72;671628;1273;138650;-80
2023/10/20 01:40:15;;;;;;;4.10;2.70;;;;;;;6.06;100.00;98849.30;671150;1260;138979;-81
2023/10/20 01:55:18;;;;;;;3.50;2.80;;;;;;;5.96;100.00;98838.02;670129;1264;138358;-81
2023/10/20 02:10:21;;;;;;;4.30;1.90;;;;;;;5.99;100.00;98835.95;672928;1273;139706;-81
2023/10/20 02:25:25;;;;;;;4.40;2.10;;;;;;;6.02;100.00;98828.24;670573;1267;138961;-81
2023/10/20 02:40:28;;;;;;;2.70;1.80;;;;;;;5.83;100.00;98831.70;672021;1273;139102;-81
2023/10/20 02:55:32;;;;;;;3.20;2.20;;;;;;;5.73;100.00;98820.10;673255;1265;138640;-81
2023/10/20 03:10:36;;;;;;;2.10;1.20;;;;;;;5.75;100.00;98819.77;673322;1264;138698;-80
2023/10/20 03:25:40;;;;;;;1.60;1.10;;;;;;;5.74;100.00;98805.09;673199;1262;139949;-81
2023/10/20 03:40:46;;;;;;;4.20;1.10;;;;;;;5.70;100.00;98803.27;672931;1264;138770;-82
2023/10/20 03:56:07;;;;;;;8.00;4.20;;;;;;;5.55;100.00;98800.71;673226;1264;139520;-82
2023/10/20 04:11:12;;;;;;;1.60;1.50;;;;;;;5.42;100.00;98781.83;673672;1263;139950;-81
2023/10/20 04:26:22;;;;;;;2.60;1.30;;;;;;;5.30;100.00;98775.61;672672;1259;138889;-79
2023/10/20 05:12:22;;;;;;;4.60;3.40;;;;;;;5.26;100.00;98806.79;668471;1263;138628;-81
2023/10/20 05:27:26;;;;;;;7.40;2.90;;;;;;;5.27;100.00;98798.58;672884;1262;139122;-80
2023/10/20 05:42:29;;;;;;;8.10;5.00;;;;;;;5.29;100.00;98790.90;670545;1263;139025;-80
2023/10/20 05:57:33;;;;;;;11.00;7.60;;;;;;;5.25;100.00;98779.72;669238;1259;139371;-81
2023/10/20 06:12:37;;;;;;;9.60;5.00;;;;;;;5.44;100.00;98801.77;669860;1264;140819;-81
2023/10/20 06:27:45;;;;;;;10.60;7.30;;;;;;;5.44;100.00;98814.06;669357;1262;138919;-81
2023/10/20 06:42:48;;;;;;;11.70;5.60;;;;;;;5.50;100.00;98795.32;668418;1263;139661;-81
2023/10/20 06:57:52;;;;;;;29.70;16.70;;;;;;;5.43;100.00;98780.47;668106;1262;138853;-81
2023/10/20 07:12:55;;;;;;;9.70;6.40;;;;;;;5.45;100.00;98792.14;669967;1259;141724;-81
2023/10/20 07:27:58;;;;;;;33.00;15.80;;;;;;;5.53;100.00;98806.69;669026;1263;139910;-80
2023/10/20 07:43:06;;;;;;;116.50;52.50;;;;;;;5.61;100.00;98793.10;669639;1259;139311;-83
2023/10/20 07:58:09;;;;;;;16.40;7.80;;;;;;;5.63;100.00;98777.29;668754;1259;141889;-81
2023/10/20 08:13:12;;;;;;;69.80;30.60;;;;;;;5.53;100.00;98772.88;669172;1259;138811;-82
2023/10/20 08:28:16;;;;;;;18.90;9.90;;;;;;;5.67;100.00;98775.06;673831;1260;139810;-81
2023/10/20 08:43:19;;;;;;;10.60;5.90;;;;;;;5.68;100.00;98767.47;668212;1264;138848;-81
2023/10/20 08:58:27;;;;;;;10.30;7.00;;;;;;;5.82;100.00;98774.73;668679;1260;140710;-81
2023/10/20 09:13:35;;;;;;;10.30;7.30;;;;;;;5.82;100.00;98792.74;668706;1263;139290;-81
2023/10/20 09:28:39;;;;;;;30.40;11.20;;;;;;;5.77;100.00;98755.88;668108;1264;139408;-81
2023/10/20 09:43:52;;;;;;;108.50;47.30;;;;;;;6.01;100.00;98750.80;671495;1265;139278;-81
2023/10/20 09:59:00;;;;;;;40.60;17.20;;;;;;;6.03;100.00;98752.98;668391;1262;139917;-81
2023/10/20 10:14:06;;;;;;;23.40;10.60;;;;;;;5.96;100.00;98726.60;668417;1264;139553;-80
2023/10/20 10:29:09;;;;;;;30.50;12.90;;;;;;;5.77;100.00;98731.61;672287;1278;139339;-79
2023/10/20 10:44:13;;;;;;;38.00;15.30;;;;;;;5.79;100.00;98736.68;669652;1260;155174;-79
2023/10/20 10:59:18;;;;;;;71.40;29.30;;;;;;;5.66;100.00;98731.06;668442;1259;139500;-80
2023/10/20 11:14:22;;;;;;;52.90;19.50;;;;;;;5.68;100.00;98731.40;668845;1262;139415;-80
2023/10/20 11:29:30;;;;;;;28.50;14.70;;;;;;;5.66;100.00;98740.45;668351;1265;139310;-79
2023/10/20 11:44:48;;;;;;;29.50;12.70;;;;;;;5.70;100.00;98742.38;668090;1263;138982;-80
2023/10/20 11:59:52;;;;;;;45.30;20.70;;;;;;;5.80;100.00;98757.69;668739;1275;140337;-82
2023/10/20 12:14:55;;;;;;;34.50;13.50;;;;;;;5.82;100.00;98754.55;670499;1262;139050;-82
2023/10/20 12:30:00;;;;;;;33.10;11.90;;;;;;;5.92;100.00;98763.88;669786;1275;138856;-80
2023/10/20 12:45:04;;;;;;;18.80;8.30;;;;;;;5.63;100.00;98731.82;670051;1264;139405;-84
2023/10/20 13:00:10;;;;;;;19.80;9.40;;;;;;;5.45;100.00;98715.47;670465;1265;140136;-84
2023/10/20 13:15:13;;;;;;;20.90;8.90;;;;;;;5.38;100.00;98701.71;669618;1265;140336;-83
2023/10/20 13:30:17;;;;;;;42.30;22.60;;;;;;;5.33;100.00;98699.27;670253;1260;139561;-84
2023/10/20 13:45:20;;;;;;;29.30;12.60;;;;;;;5.42;100.00;98703.65;669753;1264;139101;-84
2023/10/20 14:00:24;;;;;;;48.10;19.50;;;;;;;5.42;100.00;98708.30;670487;1263;139018;-85
2023/10/20 14:15:27;;;;;;;18.40;9.50;;;;;;;5.50;100.00;98703.03;672028;1263;140307;-84
2023/10/20 14:30:31;;;;;;;30.80;14.80;;;;;;;5.52;100.00;98704.96;679076;1264;138318;-83
2023/10/20 14:45:34;;;;;;;40.80;14.70;;;;;;;5.57;100.00;98715.91;679922;1260;139066;-85
2023/10/20 15:00:37;;;;;;;40.20;20.90;;;;;;;5.51;100.00;98708.48;675200;1276;139071;-84
2023/10/20 15:15:41;;;;;;;50.40;19.20;;;;;;;5.63;100.00;98681.21;677027;1262;139083;-83
2023/10/20 15:30:45;;;;;;;186.00;61.00;;;;;;;5.64;100.00;98659.57;670909;1263;139085;-83
2023/10/20 15:52:01;;;;;;;111.50;43.50;;;;;;;5.61;100.00;98653.64;653463;1298;544903;-82
2023/10/20 16:07:04;;;;;;;82.10;32.70;;;;;;;5.60;100.00;98660.69;666555;1275;138731;-82
2023/10/20 16:22:08;;;;;;;41.00;15.00;;;;;;;5.70;100.00;98663.91;665321;1268;138389;-83
2023/10/20 16:37:11;;;;;;;43.60;16.40;;;;;;;5.71;100.00;98659.45;666850;1274;138106;-83
2023/10/20 16:52:15;;;;;;;29.90;13.00;;;;;;;5.77;100.00;98653.36;666919;1273;138454;-83
2023/10/20 17:07:19;;;;;;;160.50;54.60;;;;;;;5.76;100.00;98652.91;666181;1272;139222;-83
2023/10/20 17:22:23;;;;;;;84.10;29.20;;;;;;;5.81;100.00;98653.33;666612;1274;138922;-83
2023/10/20 17:37:26;;;;;;;51.10;16.10;;;;;;;5.78;100.00;98652.59;665674;1273;138602;-83
2023/10/20 17:52:29;;;;;;;28.50;12.90;;;;;;;5.98;100.00;98636.33;669301;1273;138706;-82
2023/10/20 18:07:34;;;;;;;40.80;13.40;;;;;;;6.06;100.00;98618.23;668684;1272;137555;-84
2023/10/20 18:22:40;;;;;;;40.20;16.00;;;;;;;6.02;100.00;98606.77;670397;1273;138330;-83
2023/10/20 18:37:43;;;;;;;11.40;7.20;;;;;;;6.10;100.00;98592.89;669504;1283;138661;-83
2023/10/20 18:52:47;;;;;;;23.20;9.60;;;;;;;6.15;100.00;98621.93;669400;1273;138807;-85
2023/10/20 19:07:52;;;;;;;27.80;10.90;;;;;;;6.32;100.00;98620.09;670507;1273;139522;-85
2023/10/20 19:22:56;;;;;;;186.30;46.20;;;;;;;6.27;100.00;98636.23;669659;1270;139352;-83
2023/10/20 19:37:59;;;;;;;22.20;8.00;;;;;;;6.40;100.00;98620.01;672646;1283;139363;-82
2023/10/20 19:53:03;;;;;;;33.30;11.20;;;;;;;6.35;100.00;98594.66;674269;1266;138567;-81
2023/10/20 20:08:07;;;;;;;36.70;13.20;;;;;;;6.29;100.00;98587.08;668581;1266;140072;-83
2023/10/20 20:23:11;;;;;;;27.70;11.00;;;;;;;6.36;100.00;98575.56;669547;1264;139293;-81
2023/10/20 20:38:14;;;;;;;6.80;3.50;;;;;;;6.35;100.00;98576.73;675649;1263;140040;-84
2023/10/20 20:53:17;;;;;;;7.00;2.80;;;;;;;6.40;100.00;98585.61;673973;1269;139841;-82
2023/10/20 21:08:21;;;;;;;5.70;3.60;;;;;;;6.50;100.00;98585.70;671148;1265;138623;-83
2023/10/20 21:23:24;;;;;;;13.20;6.20;;;;;;;6.45;100.00;98533.39;676007;1263;138583;-81
2023/10/20 21:38:27;;;;;;;18.30;8.10;;;;;;;6.49;100.00;98541.84;672888;1266;139079;-83
2023/10/20 21:53:30;;;;;;;23.00;11.40;;;;;;;6.72;100.00;98533.02;673932;1273;138936;-82
2023/10/20 22:08:37;;;;;;;6.40;3.20;;;;;;;6.84;100.00;98544.70;672775;1263;139683;-83
2023/10/20 22:23:40;;;;;;;3.30;1.70;;;;;;;6.84;100.00;98546.89;674741;1266;139244;-83
2023/10/20 22:38:43;;;;;;;3.50;1.70;;;;;;;7.08;100.00;98543.00;674345;1265;138963;-82
2023/10/20 22:53:47;;;;;;;3.60;2.40;;;;;;;7.16;100.00;98512.23;674091;1260;139042;-84
2023/10/20 23:08:50;;;;;;;4.70;2.40;;;;;;;7.29;100.00;98489.73;677992;1265;138310;-84
2023/10/20 23:23:53;;;;;;;2.00;1.40;;;;;;;7.34;100.00;98497.86;674475;1263;138986;-82
2023/10/20 23:38:56;;;;;;;5.60;2.80;;;;;;;7.42;100.00;98522.64;675029;1261;140222;-83
2023/10/20 23:54:00;;;;;;;2.10;1.60;;;;;;;7.55;100.00;98539.23;671226;1264;139758;-82
